Wilson Lahn — 8PUO — position and weather

sailwx.info

Track history (hours):
 
Tides and Currents Weather Stations Pressure Air Temp Water Temp Dewpoint Dewpoint Depression Visibility Wind Speed Wind Dir Waves Ship Positions

Wilson Lahn

Last reported at 2016-Aug-27 04:33 UTC. Time now 2016-Aug-28 06:58 UTC.
Position N 58°39' E 005°03'.

Length 83 m; draft 3.6 m.

Type: Cargo ship. MMSI: 314259000.

Date/timePositionNaut miles runAvg speedWind from/ knotsBaromVisibWave heightAir tempDewpointWater temp
2016-Aug-27 04:33N 58°39' E 005°03'9 8.9
2016-Aug-27 03:33N 58°47' E 004°59'8 7.6
2016-Aug-27 02:34N 58°55' E 004°56'9 9.1
2016-Aug-27 01:33N 59°04' E 004°53'9 9.1
2016-Aug-27 00:34N 59°13' E 004°49'  
2016-Aug-23 18:16N 59°18' E 004°48'5 7.4
2016-Aug-23 17:33N 59°14' E 004°53'9 8.5
2016-Aug-23 16:33N 59°09' E 005°06'8 7.7
2016-Aug-23 15:33N 59°07' E 005°20'8 8.5
2016-Aug-23 14:33N 59°03' E 005°35'7 7.1
2016-Aug-23 13:33N 59°00' E 005°48'4 3.1
2016-Aug-23 12:22N 58°57' E 005°45'0 0.0
2016-Aug-23 11:31N 58°57' E 005°45'0 0.0
2016-Aug-23 10:31N 58°57' E 005°45'0 0.0
2016-Aug-23 09:31N 58°57' E 005°45'0 0.0
2016-Aug-23 08:31N 58°57' E 005°45'0 0.0
2016-Aug-23 07:28N 58°57' E 005°45'0 0.0
2016-Aug-23 06:31N 58°57' E 005°45'0 0.0
2016-Aug-23 05:31N 58°57' E 005°45'0 0.0
2016-Aug-23 04:28N 58°57' E 005°45'0 0.0
2016-Aug-23 03:25N 58°57' E 005°45'0 0.0
2016-Aug-23 02:31N 58°57' E 005°45'0 0.0
2016-Aug-23 01:31N 58°57' E 005°45'0 0.0
2016-Aug-23 00:31N 58°57' E 005°45'0 0.0
2016-Aug-22 23:31N 58°57' E 005°45'0 0.0
2016-Aug-22 22:31N 58°57' E 005°45'0 0.0
2016-Aug-22 21:31N 58°57' E 005°45'0 0.0
2016-Aug-22 20:31N 58°57' E 005°45'0 0.0
2016-Aug-22 19:31N 58°57' E 005°45'0 0.0
2016-Aug-22 18:31N 58°57' E 005°45'0 0.0
2016-Aug-22 17:31N 58°57' E 005°45'0 0.0
2016-Aug-22 16:31N 58°57' E 005°45'0 0.1
2016-Aug-22 15:31N 58°57' E 005°45'0 0.0
2016-Aug-22 14:22N 58°57' E 005°45'0 0.0
2016-Aug-22 13:31N 58°57' E 005°45'0 0.0
2016-Aug-22 12:31N 58°57' E 005°45'0 0.0
2016-Aug-22 11:31N 58°57' E 005°45'0 0.0
2016-Aug-22 10:31N 58°57' E 005°45'0 0.0
2016-Aug-22 09:31N 58°57' E 005°45'0 0.0
2016-Aug-22 08:31N 58°57' E 005°45'0 0.0
2016-Aug-22 07:31N 58°57' E 005°45'0 0.0
2016-Aug-22 06:31N 58°57' E 005°45'0 0.0
2016-Aug-22 05:31N 58°57' E 005°45'0 0.0
2016-Aug-22 04:31N 58°57' E 005°45'0 0.0
2016-Aug-22 03:31N 58°57' E 005°45'0 0.0
2016-Aug-22 02:31N 58°57' E 005°45'0 0.0
2016-Aug-22 01:31N 58°57' E 005°45'0 0.0
2016-Aug-22 00:31N 58°57' E 005°45'0 0.0
2016-Aug-21 23:31N 58°57' E 005°45'0 0.0
2016-Aug-21 22:31N 58°57' E 005°45'0 0.0
2016-Aug-21 21:31N 58°57' E 005°45'0 0.0
2016-Aug-21 20:31N 58°57' E 005°45'0 0.0
2016-Aug-21 19:31N 58°57' E 005°45'0 0.0
2016-Aug-21 18:31N 58°57' E 005°45'0 0.0
2016-Aug-21 17:31N 58°57' E 005°45'0 0.0
2016-Aug-21 16:25N 58°57' E 005°45'0 0.0
2016-Aug-21 15:31N 58°57' E 005°45'0 0.0
2016-Aug-21 14:31N 58°57' E 005°45'0 0.0
2016-Aug-21 13:31N 58°57' E 005°45'0 0.0
2016-Aug-21 12:31N 58°57' E 005°45'0 0.0
2016-Aug-21 11:31N 58°57' E 005°45'0 0.1
2016-Aug-21 10:33N 58°57' E 005°45'6 6.0
2016-Aug-21 09:34N 59°02' E 005°38'9 9.1
2016-Aug-21 08:34N 58°53' E 005°32'1111.3
2016-Aug-21 07:34N 58°42' E 005°26'1211.5
2016-Aug-21 06:34N 58°31' E 005°29'1111.1
2016-Aug-21 05:33N 58°20' E 005°31'24310.5
2016-Aug-20 06:18N 54°17' E 005°10'810.8
2016-Aug-20 05:33N 54°09' E 005°09'1110.6
2016-Aug-20 04:33N 53°59' E 005°04'1110.4
2016-Aug-20 03:33N 53°49' E 004°58'52 9.9
2016-Aug-19 22:20N 53°02' E 004°22'810.0
2016-Aug-19 21:32N 52°55' E 004°16'1010.0
2016-Aug-19 20:33N 52°46' E 004°08'1210.3
2016-Aug-19 19:24N 52°36' E 003°59'1010.7
2016-Aug-19 18:29N 52°26' E 003°54'1111.7
2016-Aug-19 17:33N 52°15' E 003°53'1211.9
2016-Aug-19 16:34N 52°04' E 003°59'1110.8
2016-Aug-19 15:34N 51°57' E 004°11'8 8.5
2016-Aug-19 14:33N 51°54' E 004°25'2 1.8
2016-Aug-19 13:33N 51°54' E 004°28'0 0.1
2016-Aug-19 12:33N 51°54' E 004°27'2 2.2
2016-Aug-19 11:32N 51°54' E 004°24'0 0.0
2016-Aug-19 10:32N 51°54' E 004°24'0 0.0
2016-Aug-19 09:29N 51°54' E 004°24'0 0.0
2016-Aug-19 08:32N 51°54' E 004°24'0 0.0
2016-Aug-19 07:32N 51°54' E 004°24'0 0.0
2016-Aug-19 06:32N 51°54' E 004°24'0 0.0
2016-Aug-19 05:32N 51°54' E 004°24'0 0.0
2016-Aug-19 04:32N 51°54' E 004°24'0 0.0
2016-Aug-19 03:32N 51°54' E 004°24'0 0.0
2016-Aug-19 02:32N 51°54' E 004°24'0 0.0
2016-Aug-19 01:32N 51°54' E 004°24'0 0.0
2016-Aug-19 00:32N 51°54' E 004°24'0 0.0
2016-Aug-18 23:32N 51°54' E 004°24'0 0.0
2016-Aug-18 22:32N 51°54' E 004°24'0 0.0
2016-Aug-18 21:32N 51°54' E 004°24'0 0.4
2016-Aug-18 20:34N 51°54' E 004°24'2 2.0
2016-Aug-18 19:32N 51°54' E 004°28'0 0.0
2016-Aug-18 18:32N 51°54' E 004°28'0 0.0
2016-Aug-18 17:29N 51°54' E 004°28'0 0.0
2016-Aug-18 16:32N 51°54' E 004°28'0 0.0
2016-Aug-18 15:32N 51°54' E 004°28'0 0.0
2016-Aug-18 14:29N 51°54' E 004°28'0 0.0
2016-Aug-18 13:32N 51°54' E 004°28'0 0.0
2016-Aug-18 12:32N 51°54' E 004°28'0 0.0
2016-Aug-18 11:32N 51°54' E 004°28'0 0.0
2016-Aug-18 10:29N 51°54' E 004°28'3 2.7
2016-Aug-18 09:33N 51°54' E 004°24'9 8.9
2016-Aug-18 08:33N 51°57' E 004°10'10 9.7
2016-Aug-18 07:34N 52°00' E 003°55'1010.4
2016-Aug-18 06:33N 52°04' E 003°39'1111.1
2016-Aug-18 05:34N 52°09' E 003°24'1110.7
2016-Aug-18 04:30N 52°16' E 003°09'1010.6
2016-Aug-18 03:33N 52°22' E 002°56'1010.3
2016-Aug-18 02:34N 52°28' E 002°42'10 9.9
2016-Aug-18 01:33N 52°33' E 002°28'1010.0
2016-Aug-18 00:33N 52°39' E 002°15'10 9.8
2016-Aug-17 23:34N 52°44' E 002°02'1010.4
2016-Aug-17 22:33N 52°50' E 001°47'1111.1
2016-Aug-17 21:33N 52°55' E 001°30'1211.7
2016-Aug-17 20:33N 52°60' E 001°13'1312.1
2016-Aug-17 19:31N 53°07' E 000°56'1312.2
2016-Aug-17 18:27N 53°16' E 000°40'1311.9
2016-Aug-17 17:19N 53°26' E 000°25'911.4
2016-Aug-17 16:33N 53°32' E 000°15'9 9.1
2016-Aug-17 15:33N 53°35' E 000°00'7 7.2
2016-Aug-17 14:33N 53°38' W 000°11'0 0.2
2016-Aug-17 13:32N 53°38' W 000°12'0 0.0
2016-Aug-17 12:32N 53°38' W 000°12'0 0.0
2016-Aug-17 11:32N 53°38' W 000°12'0 0.0
2016-Aug-17 10:32N 53°38' W 000°12'0 0.0
2016-Aug-17 09:32N 53°38' W 000°12'0 0.0
2016-Aug-17 08:32N 53°38' W 000°12'0 0.0
2016-Aug-17 07:32N 53°38' W 000°12'0 0.0
2016-Aug-17 06:32N 53°38' W 000°12'0 0.0
2016-Aug-17 05:32N 53°38' W 000°12'  
Track history (hours):
 
Tides and Currents Weather Stations Pressure Air Temp Water Temp Dewpoint Dewpoint Depression Visibility Wind Speed Wind Dir Waves Ship Positions

Wilson Lahn

Last reported at 2016-Aug-27 04:33 UTC. Time now 2016-Aug-28 06:58 UTC.
Position N 58°39' E 005°03'.

Length 83 m; draft 3.6 m.

Type: Cargo ship. MMSI: 314259000.

Date/timePositionNaut miles runAvg speedWind from/ knotsBaromVisibWave heightAir tempDewpointWater temp
2016-Aug-27 04:33N 58°39' E 005°03'9 8.9
2016-Aug-27 03:33N 58°47' E 004°59'8 7.6
2016-Aug-27 02:34N 58°55' E 004°56'9 9.1
2016-Aug-27 01:33N 59°04' E 004°53'9 9.1
2016-Aug-27 00:34N 59°13' E 004°49'  
2016-Aug-23 18:16N 59°18' E 004°48'5 7.4
2016-Aug-23 17:33N 59°14' E 004°53'9 8.5
2016-Aug-23 16:33N 59°09' E 005°06'8 7.7
2016-Aug-23 15:33N 59°07' E 005°20'8 8.5
2016-Aug-23 14:33N 59°03' E 005°35'7 7.1
2016-Aug-23 13:33N 59°00' E 005°48'4 3.1
2016-Aug-23 12:22N 58°57' E 005°45'0 0.0
2016-Aug-23 11:31N 58°57' E 005°45'0 0.0
2016-Aug-23 10:31N 58°57' E 005°45'0 0.0
2016-Aug-23 09:31N 58°57' E 005°45'0 0.0
2016-Aug-23 08:31N 58°57' E 005°45'0 0.0
2016-Aug-23 07:28N 58°57' E 005°45'0 0.0
2016-Aug-23 06:31N 58°57' E 005°45'0 0.0
2016-Aug-23 05:31N 58°57' E 005°45'0 0.0
2016-Aug-23 04:28N 58°57' E 005°45'0 0.0
2016-Aug-23 03:25N 58°57' E 005°45'0 0.0
2016-Aug-23 02:31N 58°57' E 005°45'0 0.0
2016-Aug-23 01:31N 58°57' E 005°45'0 0.0
2016-Aug-23 00:31N 58°57' E 005°45'0 0.0
2016-Aug-22 23:31N 58°57' E 005°45'0 0.0
2016-Aug-22 22:31N 58°57' E 005°45'0 0.0
2016-Aug-22 21:31N 58°57' E 005°45'0 0.0
2016-Aug-22 20:31N 58°57' E 005°45'0 0.0
2016-Aug-22 19:31N 58°57' E 005°45'0 0.0
2016-Aug-22 18:31N 58°57' E 005°45'0 0.0
2016-Aug-22 17:31N 58°57' E 005°45'0 0.0
2016-Aug-22 16:31N 58°57' E 005°45'0 0.1
2016-Aug-22 15:31N 58°57' E 005°45'0 0.0
2016-Aug-22 14:22N 58°57' E 005°45'0 0.0
2016-Aug-22 13:31N 58°57' E 005°45'0 0.0
2016-Aug-22 12:31N 58°57' E 005°45'0 0.0
2016-Aug-22 11:31N 58°57' E 005°45'0 0.0
2016-Aug-22 10:31N 58°57' E 005°45'0 0.0
2016-Aug-22 09:31N 58°57' E 005°45'0 0.0
2016-Aug-22 08:31N 58°57' E 005°45'0 0.0
2016-Aug-22 07:31N 58°57' E 005°45'0 0.0
2016-Aug-22 06:31N 58°57' E 005°45'0 0.0
2016-Aug-22 05:31N 58°57' E 005°45'0 0.0
2016-Aug-22 04:31N 58°57' E 005°45'0 0.0
2016-Aug-22 03:31N 58°57' E 005°45'0 0.0
2016-Aug-22 02:31N 58°57' E 005°45'0 0.0
2016-Aug-22 01:31N 58°57' E 005°45'0 0.0
2016-Aug-22 00:31N 58°57' E 005°45'0 0.0
2016-Aug-21 23:31N 58°57' E 005°45'0 0.0
2016-Aug-21 22:31N 58°57' E 005°45'0 0.0
2016-Aug-21 21:31N 58°57' E 005°45'0 0.0
2016-Aug-21 20:31N 58°57' E 005°45'0 0.0
2016-Aug-21 19:31N 58°57' E 005°45'0 0.0
2016-Aug-21 18:31N 58°57' E 005°45'0 0.0
2016-Aug-21 17:31N 58°57' E 005°45'0 0.0
2016-Aug-21 16:25N 58°57' E 005°45'0 0.0
2016-Aug-21 15:31N 58°57' E 005°45'0 0.0
2016-Aug-21 14:31N 58°57' E 005°45'0 0.0
2016-Aug-21 13:31N 58°57' E 005°45'0 0.0
2016-Aug-21 12:31N 58°57' E 005°45'0 0.0
2016-Aug-21 11:31N 58°57' E 005°45'0 0.1
2016-Aug-21 10:33N 58°57' E 005°45'6 6.0
2016-Aug-21 09:34N 59°02' E 005°38'9 9.1
2016-Aug-21 08:34N 58°53' E 005°32'1111.3
2016-Aug-21 07:34N 58°42' E 005°26'1211.5
2016-Aug-21 06:34N 58°31' E 005°29'1111.1
2016-Aug-21 05:33N 58°20' E 005°31'24310.5
2016-Aug-20 06:18N 54°17' E 005°10'810.8
2016-Aug-20 05:33N 54°09' E 005°09'1110.6
2016-Aug-20 04:33N 53°59' E 005°04'1110.4
2016-Aug-20 03:33N 53°49' E 004°58'52 9.9
2016-Aug-19 22:20N 53°02' E 004°22'810.0
2016-Aug-19 21:32N 52°55' E 004°16'1010.0
2016-Aug-19 20:33N 52°46' E 004°08'1210.3
2016-Aug-19 19:24N 52°36' E 003°59'1010.7
2016-Aug-19 18:29N 52°26' E 003°54'1111.7
2016-Aug-19 17:33N 52°15' E 003°53'1211.9
2016-Aug-19 16:34N 52°04' E 003°59'1110.8
2016-Aug-19 15:34N 51°57' E 004°11'8 8.5
2016-Aug-19 14:33N 51°54' E 004°25'2 1.8
2016-Aug-19 13:33N 51°54' E 004°28'0 0.1
2016-Aug-19 12:33N 51°54' E 004°27'2 2.2
2016-Aug-19 11:32N 51°54' E 004°24'0 0.0
2016-Aug-19 10:32N 51°54' E 004°24'0 0.0
2016-Aug-19 09:29N 51°54' E 004°24'0 0.0
2016-Aug-19 08:32N 51°54' E 004°24'0 0.0
2016-Aug-19 07:32N 51°54' E 004°24'0 0.0
2016-Aug-19 06:32N 51°54' E 004°24'0 0.0
2016-Aug-19 05:32N 51°54' E 004°24'0 0.0
2016-Aug-19 04:32N 51°54' E 004°24'0 0.0
2016-Aug-19 03:32N 51°54' E 004°24'0 0.0
2016-Aug-19 02:32N 51°54' E 004°24'0 0.0
2016-Aug-19 01:32N 51°54' E 004°24'0 0.0
2016-Aug-19 00:32N 51°54' E 004°24'0 0.0
2016-Aug-18 23:32N 51°54' E 004°24'0 0.0
2016-Aug-18 22:32N 51°54' E 004°24'0 0.0
2016-Aug-18 21:32N 51°54' E 004°24'0 0.4
2016-Aug-18 20:34N 51°54' E 004°24'2 2.0
2016-Aug-18 19:32N 51°54' E 004°28'0 0.0
2016-Aug-18 18:32N 51°54' E 004°28'0 0.0
2016-Aug-18 17:29N 51°54' E 004°28'0 0.0
2016-Aug-18 16:32N 51°54' E 004°28'0 0.0
2016-Aug-18 15:32N 51°54' E 004°28'0 0.0
2016-Aug-18 14:29N 51°54' E 004°28'0 0.0
2016-Aug-18 13:32N 51°54' E 004°28'0 0.0
2016-Aug-18 12:32N 51°54' E 004°28'0 0.0
2016-Aug-18 11:32N 51°54' E 004°28'0 0.0
2016-Aug-18 10:29N 51°54' E 004°28'3 2.7
2016-Aug-18 09:33N 51°54' E 004°24'9 8.9
2016-Aug-18 08:33N 51°57' E 004°10'10 9.7
2016-Aug-18 07:34N 52°00' E 003°55'1010.4
2016-Aug-18 06:33N 52°04' E 003°39'1111.1
2016-Aug-18 05:34N 52°09' E 003°24'1110.7
2016-Aug-18 04:30N 52°16' E 003°09'1010.6
2016-Aug-18 03:33N 52°22' E 002°56'1010.3
2016-Aug-18 02:34N 52°28' E 002°42'10 9.9
2016-Aug-18 01:33N 52°33' E 002°28'1010.0
2016-Aug-18 00:33N 52°39' E 002°15'10 9.8
2016-Aug-17 23:34N 52°44' E 002°02'1010.4
2016-Aug-17 22:33N 52°50' E 001°47'1111.1
2016-Aug-17 21:33N 52°55' E 001°30'1211.7
2016-Aug-17 20:33N 52°60' E 001°13'1312.1
2016-Aug-17 19:31N 53°07' E 000°56'1312.2
2016-Aug-17 18:27N 53°16' E 000°40'1311.9
2016-Aug-17 17:19N 53°26' E 000°25'911.4
2016-Aug-17 16:33N 53°32' E 000°15'9 9.1
2016-Aug-17 15:33N 53°35' E 000°00'7 7.2
2016-Aug-17 14:33N 53°38' W 000°11'0 0.2
2016-Aug-17 13:32N 53°38' W 000°12'0 0.0
2016-Aug-17 12:32N 53°38' W 000°12'0 0.0
2016-Aug-17 11:32N 53°38' W 000°12'0 0.0
2016-Aug-17 10:32N 53°38' W 000°12'0 0.0
2016-Aug-17 09:32N 53°38' W 000°12'0 0.0
2016-Aug-17 08:32N 53°38' W 000°12'0 0.0
2016-Aug-17 07:32N 53°38' W 000°12'0 0.0
2016-Aug-17 06:32N 53°38' W 000°12'0 0.0
2016-Aug-17 05:32N 53°38' W 000°12'  

Dump ship's entire track history